sensor_id;sensor_type;location;lat;lon;timestamp;P1;durP1;ratioP1;P2;durP2;ratioP2
7426;SDS011;3755;59.316;18.092;2023-12-07T00:02:03;23.77;;;10.13;;
7426;SDS011;3755;59.316;18.092;2023-12-07T00:04:31;21.37;;;9.40;;
7426;SDS011;3755;59.316;18.092;2023-12-07T00:06:58;18.13;;;8.43;;
7426;SDS011;3755;59.316;18.092;2023-12-07T00:09:25;17.03;;;7.47;;
7426;SDS011;3755;59.316;18.092;2023-12-07T00:11:52;22.47;;;8.80;;
7426;SDS011;3755;59.316;18.092;2023-12-07T00:14:19;21.07;;;8.73;;
7426;SDS011;3755;59.316;18.092;2023-12-07T00:16:48;16.63;;;8.17;;
7426;SDS011;3755;59.316;18.092;2023-12-07T00:19:15;20.73;;;7.90;;
7426;SDS011;3755;59.316;18.092;2023-12-07T00:21:42;16.03;;;7.73;;
7426;SDS011;3755;59.316;18.092;2023-12-07T00:24:09;16.60;;;7.00;;
7426;SDS011;3755;59.316;18.092;2023-12-07T00:26:36;14.80;;;6.70;;
7426;SDS011;3755;59.316;18.092;2023-12-07T00:29:04;15.20;;;7.60;;
7426;SDS011;3755;59.316;18.092;2023-12-07T00:31:31;12.30;;;6.03;;
7426;SDS011;3755;59.316;18.092;2023-12-07T00:34:00;13.30;;;6.40;;
7426;SDS011;3755;59.316;18.092;2023-12-07T00:36:27;11.30;;;6.13;;
7426;SDS011;3755;59.316;18.092;2023-12-07T00:38:54;18.20;;;7.10;;
7426;SDS011;3755;59.316;18.092;2023-12-07T00:41:21;16.40;;;6.83;;
7426;SDS011;3755;59.316;18.092;2023-12-07T00:43:49;13.77;;;6.23;;
7426;SDS011;3755;59.316;18.092;2023-12-07T00:46:16;12.30;;;6.03;;
7426;SDS011;3755;59.316;18.092;2023-12-07T00:48:43;12.33;;;5.60;;
7426;SDS011;3755;59.316;18.092;2023-12-07T00:51:11;12.63;;;6.47;;
7426;SDS011;3755;59.316;18.092;2023-12-07T00:53:40;14.77;;;5.53;;
7426;SDS011;3755;59.316;18.092;2023-12-07T00:56:07;13.20;;;5.87;;
7426;SDS011;3755;59.316;18.092;2023-12-07T00:58:35;11.30;;;5.23;;
7426;SDS011;3755;59.316;18.092;2023-12-07T01:01:03;10.33;;;5.63;;
7426;SDS011;3755;59.316;18.092;2023-12-07T01:03:30;10.47;;;5.03;;
7426;SDS011;3755;59.316;18.092;2023-12-07T01:05:57;11.50;;;5.50;;
7426;SDS011;3755;59.316;18.092;2023-12-07T01:08:26;9.77;;;4.97;;
7426;SDS011;3755;59.316;18.092;2023-12-07T01:10:53;10.77;;;4.60;;
7426;SDS011;3755;59.316;18.092;2023-12-07T01:13:20;11.40;;;4.47;;
7426;SDS011;3755;59.316;18.092;2023-12-07T01:15:47;8.80;;;4.90;;
7426;SDS011;3755;59.316;18.092;2023-12-07T01:18:14;9.80;;;4.70;;
7426;SDS011;3755;59.316;18.092;2023-12-07T01:20:41;9.50;;;4.33;;
7426;SDS011;3755;59.316;18.092;2023-12-07T01:23:09;8.97;;;4.40;;
7426;SDS011;3755;59.316;18.092;2023-12-07T01:25:37;11.37;;;5.43;;
7426;SDS011;3755;59.316;18.092;2023-12-07T01:28:04;9.97;;;4.93;;
7426;SDS011;3755;59.316;18.092;2023-12-07T01:30:31;11.27;;;4.73;;
7426;SDS011;3755;59.316;18.092;2023-12-07T01:32:58;7.43;;;4.20;;
7426;SDS011;3755;59.316;18.092;2023-12-07T01:35:25;12.00;;;5.03;;
7426;SDS011;3755;59.316;18.092;2023-12-07T01:37:53;7.83;;;4.77;;
7426;SDS011;3755;59.316;18.092;2023-12-07T01:40:20;9.50;;;4.90;;
7426;SDS011;3755;59.316;18.092;2023-12-07T01:42:52;9.53;;;4.87;;
7426;SDS011;3755;59.316;18.092;2023-12-07T01:45:19;6.77;;;4.00;;
7426;SDS011;3755;59.316;18.092;2023-12-07T01:47:47;8.67;;;4.73;;
7426;SDS011;3755;59.316;18.092;2023-12-07T01:50:15;8.43;;;5.10;;
7426;SDS011;3755;59.316;18.092;2023-12-07T01:52:43;7.57;;;4.90;;
7426;SDS011;3755;59.316;18.092;2023-12-07T01:55:12;6.40;;;3.93;;
7426;SDS011;3755;59.316;18.092;2023-12-07T01:57:40;10.73;;;4.10;;
7426;SDS011;3755;59.316;18.092;2023-12-07T02:00:10;9.57;;;4.63;;
7426;SDS011;3755;59.316;18.092;2023-12-07T02:02:39;6.73;;;3.43;;
7426;SDS011;3755;59.316;18.092;2023-12-07T02:05:06;6.67;;;3.60;;
7426;SDS011;3755;59.316;18.092;2023-12-07T02:07:34;9.20;;;4.97;;
7426;SDS011;3755;59.316;18.092;2023-12-07T02:10:01;10.50;;;4.33;;
7426;SDS011;3755;59.316;18.092;2023-12-07T02:12:29;6.83;;;3.90;;
7426;SDS011;3755;59.316;18.092;2023-12-07T02:14:56;9.80;;;4.47;;
7426;SDS011;3755;59.316;18.092;2023-12-07T02:17:27;7.40;;;4.17;;
7426;SDS011;3755;59.316;18.092;2023-12-07T02:20:01;6.70;;;4.07;;
7426;SDS011;3755;59.316;18.092;2023-12-07T02:22:36;7.43;;;3.83;;
7426;SDS011;3755;59.316;18.092;2023-12-07T02:25:06;6.30;;;3.83;;
7426;SDS011;3755;59.316;18.092;2023-12-07T02:27:38;6.87;;;3.53;;
7426;SDS011;3755;59.316;18.092;2023-12-07T02:30:06;6.20;;;3.50;;
7426;SDS011;3755;59.316;18.092;2023-12-07T02:32:34;7.03;;;3.77;;
7426;SDS011;3755;59.316;18.092;2023-12-07T02:35:01;6.40;;;3.50;;
7426;SDS011;3755;59.316;18.092;2023-12-07T02:37:31;5.93;;;3.30;;
7426;SDS011;3755;59.316;18.092;2023-12-07T02:40:02;6.53;;;3.37;;
7426;SDS011;3755;59.316;18.092;2023-12-07T02:42:35;6.67;;;3.90;;
7426;SDS011;3755;59.316;18.092;2023-12-07T02:45:05;7.03;;;3.37;;
7426;SDS011;3755;59.316;18.092;2023-12-07T02:47:33;7.87;;;3.97;;
7426;SDS011;3755;59.316;18.092;2023-12-07T02:50:01;17.53;;;4.17;;
7426;SDS011;3755;59.316;18.092;2023-12-07T02:52:28;6.63;;;3.60;;
7426;SDS011;3755;59.316;18.092;2023-12-07T02:54:55;6.83;;;3.17;;
7426;SDS011;3755;59.316;18.092;2023-12-07T02:57:23;5.97;;;3.67;;
7426;SDS011;3755;59.316;18.092;2023-12-07T02:59:50;6.60;;;4.47;;
7426;SDS011;3755;59.316;18.092;2023-12-07T03:02:18;6.77;;;3.57;;
7426;SDS011;3755;59.316;18.092;2023-12-07T03:04:45;6.53;;;3.30;;
7426;SDS011;3755;59.316;18.092;2023-12-07T03:07:12;6.33;;;3.80;;
7426;SDS011;3755;59.316;18.092;2023-12-07T03:09:39;5.80;;;3.33;;
7426;SDS011;3755;59.316;18.092;2023-12-07T03:12:07;6.47;;;3.27;;
7426;SDS011;3755;59.316;18.092;2023-12-07T03:14:34;6.50;;;3.33;;
7426;SDS011;3755;59.316;18.092;2023-12-07T03:17:01;7.73;;;3.40;;
7426;SDS011;3755;59.316;18.092;2023-12-07T03:19:29;4.97;;;3.50;;
7426;SDS011;3755;59.316;18.092;2023-12-07T03:21:56;6.60;;;3.13;;
7426;SDS011;3755;59.316;18.092;2023-12-07T03:24:24;5.77;;;3.43;;
7426;SDS011;3755;59.316;18.092;2023-12-07T03:26:51;6.07;;;3.67;;
7426;SDS011;3755;59.316;18.092;2023-12-07T03:29:18;5.77;;;3.40;;
7426;SDS011;3755;59.316;18.092;2023-12-07T03:31:45;5.43;;;3.10;;
7426;SDS011;3755;59.316;18.092;2023-12-07T03:34:12;6.60;;;3.90;;
7426;SDS011;3755;59.316;18.092;2023-12-07T03:36:42;6.20;;;3.27;;
7426;SDS011;3755;59.316;18.092;2023-12-07T03:39:11;7.33;;;3.20;;
7426;SDS011;3755;59.316;18.092;2023-12-07T03:41:39;6.07;;;3.70;;
7426;SDS011;3755;59.316;18.092;2023-12-07T03:44:07;7.43;;;3.80;;
7426;SDS011;3755;59.316;18.092;2023-12-07T03:46:34;6.60;;;3.90;;
7426;SDS011;3755;59.316;18.092;2023-12-07T03:49:01;5.53;;;3.40;;
7426;SDS011;3755;59.316;18.092;2023-12-07T03:51:28;4.73;;;2.77;;
7426;SDS011;3755;59.316;18.092;2023-12-07T03:53:56;5.53;;;3.17;;
7426;SDS011;3755;59.316;18.092;2023-12-07T03:56:23;6.33;;;2.83;;
7426;SDS011;3755;59.316;18.092;2023-12-07T03:58:51;5.40;;;3.20;;
7426;SDS011;3755;59.316;18.092;2023-12-07T04:01:21;5.00;;;3.30;;
7426;SDS011;3755;59.316;18.092;2023-12-07T04:03:49;4.50;;;2.67;;
7426;SDS011;3755;59.316;18.092;2023-12-07T04:06:17;5.43;;;2.93;;
7426;SDS011;3755;59.316;18.092;2023-12-07T04:08:45;4.63;;;2.80;;
7426;SDS011;3755;59.316;18.092;2023-12-07T04:11:14;4.30;;;3.10;;
7426;SDS011;3755;59.316;18.092;2023-12-07T04:13:42;4.73;;;3.10;;
7426;SDS011;3755;59.316;18.092;2023-12-07T04:16:09;6.40;;;3.50;;
7426;SDS011;3755;59.316;18.092;2023-12-07T04:18:37;5.90;;;3.10;;
7426;SDS011;3755;59.316;18.092;2023-12-07T04:21:04;4.80;;;2.90;;
7426;SDS011;3755;59.316;18.092;2023-12-07T04:23:31;4.00;;;3.30;;
7426;SDS011;3755;59.316;18.092;2023-12-07T04:25:59;4.87;;;2.97;;
7426;SDS011;3755;59.316;18.092;2023-12-07T04:28:27;5.37;;;3.27;;
7426;SDS011;3755;59.316;18.092;2023-12-07T04:30:54;4.57;;;3.13;;
7426;SDS011;3755;59.316;18.092;2023-12-07T04:33:21;4.13;;;3.07;;
7426;SDS011;3755;59.316;18.092;2023-12-07T04:35:48;5.37;;;3.37;;
7426;SDS011;3755;59.316;18.092;2023-12-07T04:38:16;4.67;;;2.93;;
7426;SDS011;3755;59.316;18.092;2023-12-07T04:40:43;5.30;;;2.90;;
7426;SDS011;3755;59.316;18.092;2023-12-07T04:43:10;4.27;;;3.07;;
7426;SDS011;3755;59.316;18.092;2023-12-07T04:45:39;7.40;;;3.17;;
7426;SDS011;3755;59.316;18.092;2023-12-07T04:48:06;5.40;;;3.17;;
7426;SDS011;3755;59.316;18.092;2023-12-07T04:50:34;5.37;;;3.00;;
7426;SDS011;3755;59.316;18.092;2023-12-07T04:53:01;4.97;;;3.07;;
7426;SDS011;3755;59.316;18.092;2023-12-07T04:55:28;6.10;;;4.07;;
7426;SDS011;3755;59.316;18.092;2023-12-07T04:57:55;6.13;;;3.33;;
7426;SDS011;3755;59.316;18.092;2023-12-07T05:00:22;5.70;;;3.50;;
7426;SDS011;3755;59.316;18.092;2023-12-07T05:02:51;5.07;;;3.30;;
7426;SDS011;3755;59.316;18.092;2023-12-07T05:05:18;7.23;;;4.33;;
7426;SDS011;3755;59.316;18.092;2023-12-07T05:07:45;5.73;;;3.10;;
7426;SDS011;3755;59.316;18.092;2023-12-07T05:10:12;6.37;;;4.13;;
7426;SDS011;3755;59.316;18.092;2023-12-07T05:12:39;4.77;;;3.20;;
7426;SDS011;3755;59.316;18.092;2023-12-07T05:15:07;9.23;;;4.17;;
7426;SDS011;3755;59.316;18.092;2023-12-07T05:17:35;5.40;;;3.50;;
7426;SDS011;3755;59.316;18.092;2023-12-07T05:20:04;5.83;;;3.17;;
7426;SDS011;3755;59.316;18.092;2023-12-07T05:22:32;5.23;;;3.60;;
7426;SDS011;3755;59.316;18.092;2023-12-07T05:24:59;6.67;;;3.57;;
7426;SDS011;3755;59.316;18.092;2023-12-07T05:27:26;5.40;;;3.20;;
7426;SDS011;3755;59.316;18.092;2023-12-07T05:29:53;6.60;;;4.17;;
7426;SDS011;3755;59.316;18.092;2023-12-07T05:32:21;8.47;;;5.37;;
7426;SDS011;3755;59.316;18.092;2023-12-07T05:34:49;8.77;;;5.30;;
7426;SDS011;3755;59.316;18.092;2023-12-07T05:37:18;5.83;;;3.30;;
7426;SDS011;3755;59.316;18.092;2023-12-07T05:39:45;7.03;;;4.47;;
7426;SDS011;3755;59.316;18.092;2023-12-07T05:42:12;9.40;;;5.60;;
7426;SDS011;3755;59.316;18.092;2023-12-07T05:44:39;8.77;;;5.20;;
7426;SDS011;3755;59.316;18.092;2023-12-07T05:47:12;17.37;;;10.87;;
7426;SDS011;3755;59.316;18.092;2023-12-07T05:49:39;6.87;;;4.13;;
7426;SDS011;3755;59.316;18.092;2023-12-07T05:52:06;7.43;;;3.70;;
7426;SDS011;3755;59.316;18.092;2023-12-07T05:54:35;6.40;;;4.20;;
7426;SDS011;3755;59.316;18.092;2023-12-07T05:57:07;7.67;;;4.87;;
7426;SDS011;3755;59.316;18.092;2023-12-07T05:59:36;5.73;;;3.63;;
7426;SDS011;3755;59.316;18.092;2023-12-07T06:02:03;4.97;;;3.03;;
7426;SDS011;3755;59.316;18.092;2023-12-07T06:04:31;6.97;;;3.47;;
7426;SDS011;3755;59.316;18.092;2023-12-07T06:06:58;5.80;;;3.33;;
7426;SDS011;3755;59.316;18.092;2023-12-07T06:09:29;5.50;;;3.43;;
7426;SDS011;3755;59.316;18.092;2023-12-07T06:12:00;5.07;;;3.37;;
7426;SDS011;3755;59.316;18.092;2023-12-07T06:14:41;5.40;;;3.07;;
7426;SDS011;3755;59.316;18.092;2023-12-07T06:17:08;9.80;;;4.10;;
7426;SDS011;3755;59.316;18.092;2023-12-07T06:19:36;10.10;;;4.27;;
7426;SDS011;3755;59.316;18.092;2023-12-07T06:22:03;7.27;;;3.97;;
7426;SDS011;3755;59.316;18.092;2023-12-07T06:24:31;8.30;;;4.60;;
7426;SDS011;3755;59.316;18.092;2023-12-07T06:26:59;6.37;;;3.67;;
7426;SDS011;3755;59.316;18.092;2023-12-07T06:29:28;9.13;;;4.80;;
7426;SDS011;3755;59.316;18.092;2023-12-07T06:31:57;5.83;;;3.23;;
7426;SDS011;3755;59.316;18.092;2023-12-07T06:34:25;10.23;;;5.20;;
7426;SDS011;3755;59.316;18.092;2023-12-07T06:36:53;6.00;;;3.80;;
7426;SDS011;3755;59.316;18.092;2023-12-07T06:39:21;6.10;;;3.30;;
7426;SDS011;3755;59.316;18.092;2023-12-07T06:41:49;7.27;;;3.23;;
7426;SDS011;3755;59.316;18.092;2023-12-07T06:44:18;7.10;;;3.77;;
7426;SDS011;3755;59.316;18.092;2023-12-07T06:47:03;9.30;;;4.63;;
7426;SDS011;3755;59.316;18.092;2023-12-07T06:49:31;5.73;;;3.70;;
7426;SDS011;3755;59.316;18.092;2023-12-07T06:51:58;8.40;;;4.30;;
7426;SDS011;3755;59.316;18.092;2023-12-07T06:54:26;9.40;;;4.80;;
7426;SDS011;3755;59.316;18.092;2023-12-07T06:56:53;8.27;;;4.33;;
7426;SDS011;3755;59.316;18.092;2023-12-07T06:59:23;4.40;;;3.13;;
7426;SDS011;3755;59.316;18.092;2023-12-07T07:02:10;4.33;;;3.07;;
7426;SDS011;3755;59.316;18.092;2023-12-07T07:04:38;5.97;;;3.70;;
7426;SDS011;3755;59.316;18.092;2023-12-07T07:07:19;8.47;;;3.67;;
7426;SDS011;3755;59.316;18.092;2023-12-07T07:09:53;6.40;;;3.53;;
7426;SDS011;3755;59.316;18.092;2023-12-07T07:12:22;7.77;;;4.80;;
7426;SDS011;3755;59.316;18.092;2023-12-07T07:14:52;16.60;;;7.87;;
7426;SDS011;3755;59.316;18.092;2023-12-07T07:17:19;17.87;;;7.97;;
7426;SDS011;3755;59.316;18.092;2023-12-07T07:19:47;6.40;;;3.53;;
7426;SDS011;3755;59.316;18.092;2023-12-07T07:22:28;7.57;;;4.90;;
7426;SDS011;3755;59.316;18.092;2023-12-07T07:24:56;8.63;;;4.63;;
7426;SDS011;3755;59.316;18.092;2023-12-07T07:27:39;8.57;;;4.83;;
7426;SDS011;3755;59.316;18.092;2023-12-07T07:30:11;7.10;;;4.27;;
7426;SDS011;3755;59.316;18.092;2023-12-07T07:33:33;15.17;;;7.93;;
7426;SDS011;3755;59.316;18.092;2023-12-07T07:36:37;19.03;;;9.30;;
7426;SDS011;3755;59.316;18.092;2023-12-07T07:39:42;54.03;;;27.77;;
7426;SDS011;3755;59.316;18.092;2023-12-07T07:42:36;14.13;;;7.87;;
7426;SDS011;3755;59.316;18.092;2023-12-07T07:51:47;11.87;;;6.70;;
7426;SDS011;3755;59.316;18.092;2023-12-07T07:55:10;10.97;;;6.83;;
7426;SDS011;3755;59.316;18.092;2023-12-07T07:58:51;6.00;;;3.47;;
7426;SDS011;3755;59.316;18.092;2023-12-07T08:01:34;9.90;;;6.10;;
7426;SDS011;3755;59.316;18.092;2023-12-07T08:04:03;6.97;;;3.53;;
7426;SDS011;3755;59.316;18.092;2023-12-07T08:06:32;9.30;;;5.20;;
7426;SDS011;3755;59.316;18.092;2023-12-07T08:09:00;6.17;;;3.93;;
7426;SDS011;3755;59.316;18.092;2023-12-07T08:11:30;8.03;;;5.30;;
7426;SDS011;3755;59.316;18.092;2023-12-07T08:14:11;9.67;;;5.50;;
7426;SDS011;3755;59.316;18.092;2023-12-07T08:16:42;17.13;;;9.20;;
7426;SDS011;3755;59.316;18.092;2023-12-07T08:19:14;26.47;;;16.10;;
7426;SDS011;3755;59.316;18.092;2023-12-07T08:21:43;23.53;;;14.90;;
7426;SDS011;3755;59.316;18.092;2023-12-07T08:24:13;14.77;;;10.40;;
7426;SDS011;3755;59.316;18.092;2023-12-07T08:26:40;12.33;;;7.60;;
7426;SDS011;3755;59.316;18.092;2023-12-07T08:29:11;6.53;;;4.37;;
7426;SDS011;3755;59.316;18.092;2023-12-07T08:31:47;8.97;;;5.87;;
7426;SDS011;3755;59.316;18.092;2023-12-07T08:34:18;10.20;;;5.40;;
7426;SDS011;3755;59.316;18.092;2023-12-07T08:36:49;7.43;;;4.47;;
7426;SDS011;3755;59.316;18.092;2023-12-07T08:39:17;9.27;;;5.43;;
7426;SDS011;3755;59.316;18.092;2023-12-07T08:41:46;11.57;;;5.70;;
7426;SDS011;3755;59.316;18.092;2023-12-07T08:44:14;9.10;;;4.57;;
7426;SDS011;3755;59.316;18.092;2023-12-07T08:46:41;10.97;;;6.43;;
7426;SDS011;3755;59.316;18.092;2023-12-07T08:49:10;16.53;;;10.03;;
7426;SDS011;3755;59.316;18.092;2023-12-07T08:51:38;14.93;;;8.90;;
7426;SDS011;3755;59.316;18.092;2023-12-07T08:54:06;13.37;;;8.27;;
7426;SDS011;3755;59.316;18.092;2023-12-07T08:56:34;13.90;;;8.00;;
7426;SDS011;3755;59.316;18.092;2023-12-07T08:59:01;12.53;;;6.60;;
7426;SDS011;3755;59.316;18.092;2023-12-07T09:01:29;14.20;;;6.53;;
7426;SDS011;3755;59.316;18.092;2023-12-07T09:04:19;6.73;;;4.20;;
7426;SDS011;3755;59.316;18.092;2023-12-07T09:07:02;7.03;;;4.63;;
7426;SDS011;3755;59.316;18.092;2023-12-07T09:09:45;11.20;;;6.93;;
7426;SDS011;3755;59.316;18.092;2023-12-07T09:12:13;12.30;;;7.13;;
7426;SDS011;3755;59.316;18.092;2023-12-07T09:14:41;14.67;;;8.33;;
7426;SDS011;3755;59.316;18.092;2023-12-07T09:17:09;13.43;;;7.87;;
7426;SDS011;3755;59.316;18.092;2023-12-07T09:20:05;9.03;;;5.70;;
7426;SDS011;3755;59.316;18.092;2023-12-07T09:23:07;10.87;;;5.13;;
7426;SDS011;3755;59.316;18.092;2023-12-07T09:25:35;19.63;;;8.93;;
7426;SDS011;3755;59.316;18.092;2023-12-07T09:28:14;10.37;;;6.07;;
7426;SDS011;3755;59.316;18.092;2023-12-07T09:30:42;7.67;;;4.97;;
7426;SDS011;3755;59.316;18.092;2023-12-07T09:33:12;12.60;;;5.97;;
7426;SDS011;3755;59.316;18.092;2023-12-07T09:36:14;15.87;;;9.17;;
7426;SDS011;3755;59.316;18.092;2023-12-07T09:39:01;13.97;;;7.53;;
7426;SDS011;3755;59.316;18.092;2023-12-07T09:44:30;14.37;;;8.63;;
7426;SDS011;3755;59.316;18.092;2023-12-07T09:47:11;24.43;;;14.00;;
7426;SDS011;3755;59.316;18.092;2023-12-07T09:49:39;19.77;;;9.83;;
7426;SDS011;3755;59.316;18.092;2023-12-07T09:52:08;17.80;;;10.47;;
7426;SDS011;3755;59.316;18.092;2023-12-07T09:54:39;13.57;;;7.40;;
7426;SDS011;3755;59.316;18.092;2023-12-07T09:57:14;17.63;;;10.77;;
7426;SDS011;3755;59.316;18.092;2023-12-07T09:59:45;15.93;;;9.37;;
7426;SDS011;3755;59.316;18.092;2023-12-07T10:02:18;18.03;;;9.13;;
7426;SDS011;3755;59.316;18.092;2023-12-07T10:04:46;14.20;;;7.97;;
7426;SDS011;3755;59.316;18.092;2023-12-07T10:07:14;14.17;;;7.47;;
7426;SDS011;3755;59.316;18.092;2023-12-07T10:09:41;11.70;;;6.30;;
7426;SDS011;3755;59.316;18.092;2023-12-07T10:12:09;10.57;;;5.80;;
7426;SDS011;3755;59.316;18.092;2023-12-07T10:14:37;11.23;;;7.07;;
7426;SDS011;3755;59.316;18.092;2023-12-07T10:17:04;11.00;;;6.70;;
7426;SDS011;3755;59.316;18.092;2023-12-07T10:19:32;20.77;;;11.70;;
7426;SDS011;3755;59.316;18.092;2023-12-07T10:21:59;17.77;;;11.10;;
7426;SDS011;3755;59.316;18.092;2023-12-07T10:24:26;26.07;;;14.87;;
7426;SDS011;3755;59.316;18.092;2023-12-07T10:26:55;16.20;;;8.20;;
7426;SDS011;3755;59.316;18.092;2023-12-07T10:29:24;11.03;;;7.33;;
7426;SDS011;3755;59.316;18.092;2023-12-07T10:32:00;11.40;;;6.47;;
7426;SDS011;3755;59.316;18.092;2023-12-07T10:34:30;14.67;;;7.37;;
7426;SDS011;3755;59.316;18.092;2023-12-07T10:36:58;11.13;;;5.73;;
7426;SDS011;3755;59.316;18.092;2023-12-07T10:39:25;10.87;;;6.40;;
7426;SDS011;3755;59.316;18.092;2023-12-07T10:41:55;13.70;;;7.27;;
7426;SDS011;3755;59.316;18.092;2023-12-07T10:44:28;12.93;;;6.93;;
7426;SDS011;3755;59.316;18.092;2023-12-07T10:46:56;13.73;;;7.60;;
7426;SDS011;3755;59.316;18.092;2023-12-07T10:49:25;10.07;;;6.77;;
7426;SDS011;3755;59.316;18.092;2023-12-07T10:51:57;9.63;;;6.47;;
7426;SDS011;3755;59.316;18.092;2023-12-07T10:54:30;11.13;;;6.47;;
7426;SDS011;3755;59.316;18.092;2023-12-07T10:57:04;10.07;;;6.27;;
7426;SDS011;3755;59.316;18.092;2023-12-07T10:59:33;10.37;;;6.73;;
7426;SDS011;3755;59.316;18.092;2023-12-07T11:02:05;8.90;;;5.73;;
7426;SDS011;3755;59.316;18.092;2023-12-07T11:04:37;17.03;;;7.03;;
7426;SDS011;3755;59.316;18.092;2023-12-07T11:07:09;11.90;;;7.27;;
7426;SDS011;3755;59.316;18.092;2023-12-07T11:09:45;11.00;;;6.17;;
7426;SDS011;3755;59.316;18.092;2023-12-07T11:12:19;11.60;;;6.30;;
7426;SDS011;3755;59.316;18.092;2023-12-07T11:14:55;11.03;;;6.43;;
7426;SDS011;3755;59.316;18.092;2023-12-07T11:17:24;11.93;;;6.80;;
7426;SDS011;3755;59.316;18.092;2023-12-07T11:19:57;12.47;;;6.27;;
7426;SDS011;3755;59.316;18.092;2023-12-07T11:22:28;12.47;;;6.13;;
7426;SDS011;3755;59.316;18.092;2023-12-07T11:24:57;9.80;;;6.17;;
7426;SDS011;3755;59.316;18.092;2023-12-07T11:27:28;12.43;;;7.27;;
7426;SDS011;3755;59.316;18.092;2023-12-07T11:29:58;10.53;;;6.70;;
7426;SDS011;3755;59.316;18.092;2023-12-07T11:32:27;9.43;;;6.33;;
7426;SDS011;3755;59.316;18.092;2023-12-07T11:35:02;10.93;;;5.87;;
7426;SDS011;3755;59.316;18.092;2023-12-07T11:38:03;14.17;;;7.30;;
7426;SDS011;3755;59.316;18.092;2023-12-07T11:40:34;14.10;;;8.83;;
7426;SDS011;3755;59.316;18.092;2023-12-07T11:43:18;13.23;;;7.93;;
7426;SDS011;3755;59.316;18.092;2023-12-07T11:46:12;11.40;;;7.33;;
7426;SDS011;3755;59.316;18.092;2023-12-07T11:49:20;11.50;;;6.83;;
7426;SDS011;3755;59.316;18.092;2023-12-07T11:51:49;15.03;;;7.00;;
7426;SDS011;3755;59.316;18.092;2023-12-07T11:54:18;13.23;;;7.27;;
7426;SDS011;3755;59.316;18.092;2023-12-07T11:56:46;16.67;;;8.20;;
7426;SDS011;3755;59.316;18.092;2023-12-07T11:59:18;18.90;;;9.87;;
7426;SDS011;3755;59.316;18.092;2023-12-07T12:01:46;13.50;;;8.20;;
7426;SDS011;3755;59.316;18.092;2023-12-07T12:04:14;14.20;;;7.53;;
7426;SDS011;3755;59.316;18.092;2023-12-07T12:06:43;12.70;;;7.50;;
7426;SDS011;3755;59.316;18.092;2023-12-07T12:09:13;13.30;;;7.87;;
7426;SDS011;3755;59.316;18.092;2023-12-07T12:12:04;10.57;;;6.73;;
7426;SDS011;3755;59.316;18.092;2023-12-07T12:14:32;16.53;;;8.90;;
7426;SDS011;3755;59.316;18.092;2023-12-07T12:16:59;13.30;;;8.53;;
7426;SDS011;3755;59.316;18.092;2023-12-07T12:19:26;15.00;;;9.50;;
7426;SDS011;3755;59.316;18.092;2023-12-07T12:21:54;17.10;;;8.30;;
7426;SDS011;3755;59.316;18.092;2023-12-07T12:24:23;17.17;;;8.43;;
7426;SDS011;3755;59.316;18.092;2023-12-07T12:26:50;13.23;;;7.00;;
7426;SDS011;3755;59.316;18.092;2023-12-07T12:29:17;11.27;;;6.60;;
7426;SDS011;3755;59.316;18.092;2023-12-07T12:31:44;13.43;;;7.17;;
7426;SDS011;3755;59.316;18.092;2023-12-07T12:34:13;10.97;;;6.73;;
7426;SDS011;3755;59.316;18.092;2023-12-07T12:36:42;14.67;;;6.80;;
7426;SDS011;3755;59.316;18.092;2023-12-07T12:39:13;11.20;;;7.63;;
7426;SDS011;3755;59.316;18.092;2023-12-07T12:41:51;15.83;;;6.97;;
7426;SDS011;3755;59.316;18.092;2023-12-07T12:44:50;18.60;;;10.90;;
7426;SDS011;3755;59.316;18.092;2023-12-07T12:47:17;18.77;;;10.87;;
7426;SDS011;3755;59.316;18.092;2023-12-07T12:50:05;14.43;;;9.03;;
7426;SDS011;3755;59.316;18.092;2023-12-07T12:52:36;11.83;;;7.87;;
7426;SDS011;3755;59.316;18.092;2023-12-07T12:55:09;13.07;;;9.20;;
7426;SDS011;3755;59.316;18.092;2023-12-07T12:57:58;10.50;;;7.23;;
7426;SDS011;3755;59.316;18.092;2023-12-07T13:00:30;13.33;;;8.30;;
7426;SDS011;3755;59.316;18.092;2023-12-07T13:03:00;16.23;;;7.33;;
7426;SDS011;3755;59.316;18.092;2023-12-07T13:05:28;9.93;;;6.90;;
7426;SDS011;3755;59.316;18.092;2023-12-07T13:07:57;13.70;;;7.03;;
7426;SDS011;3755;59.316;18.092;2023-12-07T13:10:25;14.47;;;7.13;;
7426;SDS011;3755;59.316;18.092;2023-12-07T13:12:53;16.03;;;6.93;;
7426;SDS011;3755;59.316;18.092;2023-12-07T13:21:47;15.00;;;7.73;;
7426;SDS011;3755;59.316;18.092;2023-12-07T13:24:33;10.00;;;6.00;;
7426;SDS011;3755;59.316;18.092;2023-12-07T13:27:14;11.87;;;6.60;;
7426;SDS011;3755;59.316;18.092;2023-12-07T13:29:43;12.30;;;6.87;;
7426;SDS011;3755;59.316;18.092;2023-12-07T13:32:24;18.37;;;8.47;;
7426;SDS011;3755;59.316;18.092;2023-12-07T13:35:12;10.77;;;6.10;;
7426;SDS011;3755;59.316;18.092;2023-12-07T13:37:56;11.17;;;7.00;;
7426;SDS011;3755;59.316;18.092;2023-12-07T13:40:41;17.27;;;8.17;;
7426;SDS011;3755;59.316;18.092;2023-12-07T13:43:23;38.67;;;18.83;;
7426;SDS011;3755;59.316;18.092;2023-12-07T13:45:55;26.03;;;13.50;;
7426;SDS011;3755;59.316;18.092;2023-12-07T13:48:26;17.07;;;10.07;;
7426;SDS011;3755;59.316;18.092;2023-12-07T13:50:54;19.47;;;9.13;;
7426;SDS011;3755;59.316;18.092;2023-12-07T13:53:22;14.90;;;8.20;;
7426;SDS011;3755;59.316;18.092;2023-12-07T13:55:51;16.40;;;9.70;;
7426;SDS011;3755;59.316;18.092;2023-12-07T13:58:19;19.00;;;9.67;;
7426;SDS011;3755;59.316;18.092;2023-12-07T14:00:47;13.50;;;7.50;;
7426;SDS011;3755;59.316;18.092;2023-12-07T14:03:15;17.93;;;9.07;;
7426;SDS011;3755;59.316;18.092;2023-12-07T14:05:42;16.50;;;8.40;;
7426;SDS011;3755;59.316;18.092;2023-12-07T14:08:11;14.97;;;8.67;;
7426;SDS011;3755;59.316;18.092;2023-12-07T14:10:40;19.07;;;11.67;;
7426;SDS011;3755;59.316;18.092;2023-12-07T14:13:21;13.93;;;8.93;;
7426;SDS011;3755;59.316;18.092;2023-12-07T14:15:50;14.93;;;9.03;;
7426;SDS011;3755;59.316;18.092;2023-12-07T14:18:17;15.33;;;9.63;;
7426;SDS011;3755;59.316;18.092;2023-12-07T14:20:50;18.67;;;9.83;;
7426;SDS011;3755;59.316;18.092;2023-12-07T14:23:27;17.63;;;9.37;;
7426;SDS011;3755;59.316;18.092;2023-12-07T14:29:21;20.10;;;11.93;;
7426;SDS011;3755;59.316;18.092;2023-12-07T14:31:50;18.40;;;11.00;;
7426;SDS011;3755;59.316;18.092;2023-12-07T14:34:18;22.53;;;12.70;;
7426;SDS011;3755;59.316;18.092;2023-12-07T14:36:50;17.23;;;10.83;;
7426;SDS011;3755;59.316;18.092;2023-12-07T14:39:34;18.97;;;11.87;;
7426;SDS011;3755;59.316;18.092;2023-12-07T14:42:17;28.13;;;17.97;;
7426;SDS011;3755;59.316;18.092;2023-12-07T14:44:57;30.57;;;19.33;;
7426;SDS011;3755;59.316;18.092;2023-12-07T14:47:55;39.93;;;22.77;;
7426;SDS011;3755;59.316;18.092;2023-12-07T14:50:37;26.47;;;14.77;;
7426;SDS011;3755;59.316;18.092;2023-12-07T14:53:19;23.77;;;13.30;;
7426;SDS011;3755;59.316;18.092;2023-12-07T14:55:54;26.00;;;14.17;;
7426;SDS011;3755;59.316;18.092;2023-12-07T14:58:46;36.03;;;17.23;;
7426;SDS011;3755;59.316;18.092;2023-12-07T15:04:47;14.67;;;9.47;;
7426;SDS011;3755;59.316;18.092;2023-12-07T15:07:34;17.90;;;11.30;;
7426;SDS011;3755;59.316;18.092;2023-12-07T15:10:15;20.37;;;11.23;;
7426;SDS011;3755;59.316;18.092;2023-12-07T15:12:57;20.17;;;12.50;;
7426;SDS011;3755;59.316;18.092;2023-12-07T15:15:39;23.07;;;15.73;;
7426;SDS011;3755;59.316;18.092;2023-12-07T15:18:36;20.43;;;11.67;;
7426;SDS011;3755;59.316;18.092;2023-12-07T15:27:43;15.53;;;8.70;;
7426;SDS011;3755;59.316;18.092;2023-12-07T15:30:25;19.37;;;11.13;;
7426;SDS011;3755;59.316;18.092;2023-12-07T15:33:12;17.67;;;11.67;;
7426;SDS011;3755;59.316;18.092;2023-12-07T15:35:53;13.47;;;9.07;;
7426;SDS011;3755;59.316;18.092;2023-12-07T15:38:43;16.23;;;8.50;;
7426;SDS011;3755;59.316;18.092;2023-12-07T15:41:31;13.60;;;7.70;;
7426;SDS011;3755;59.316;18.092;2023-12-07T15:44:16;19.87;;;9.63;;
7426;SDS011;3755;59.316;18.092;2023-12-07T15:46:59;20.30;;;11.13;;
7426;SDS011;3755;59.316;18.092;2023-12-07T15:49:42;18.23;;;10.30;;
7426;SDS011;3755;59.316;18.092;2023-12-07T15:52:24;17.37;;;9.83;;